createdAt,value
2019-02-05T00:05:06.247Z,96.40
2019-02-05T00:10:24.094Z,96.30
2019-02-05T00:15:41.563Z,96.40
2019-02-05T00:20:58.428Z,96.60
2019-02-05T00:26:15.218Z,96.70
2019-02-05T00:31:32.112Z,96.60
2019-02-05T00:36:48.883Z,96.60
2019-02-05T00:42:06.178Z,96.60
2019-02-05T00:47:23.272Z,96.80
2019-02-05T00:52:40.265Z,97.00
2019-02-05T00:57:57.677Z,96.90
2019-02-05T01:03:14.944Z,96.90
2019-02-05T01:08:31.897Z,96.90
2019-02-05T01:13:49.445Z,96.80
2019-02-05T01:19:07.135Z,96.80
2019-02-05T01:24:23.917Z,96.70
2019-02-05T01:29:40.939Z,96.60
2019-02-05T01:34:58.611Z,96.60
2019-02-05T01:40:15.777Z,96.60
2019-02-05T01:45:33.693Z,96.60
2019-02-05T01:50:50.794Z,96.60
2019-02-05T01:56:08.247Z,96.70
2019-02-05T02:01:25.737Z,97.40
2019-02-05T02:06:43.388Z,97.10
2019-02-05T02:12:00.412Z,97.00
2019-02-05T02:17:18.283Z,96.90
2019-02-05T02:22:35.344Z,96.90
2019-02-05T02:27:53.347Z,96.80
2019-02-05T02:33:10.294Z,96.80
2019-02-05T02:38:27.931Z,96.80
2019-02-05T02:43:45.563Z,96.90
2019-02-05T02:49:02.435Z,96.90
2019-02-05T02:54:19.248Z,96.90
2019-02-05T02:59:36.331Z,96.80
2019-02-05T03:04:53.129Z,96.70
2019-02-05T03:10:10.245Z,96.70
2019-02-05T03:15:27.500Z,96.60
2019-02-05T03:20:46.166Z,96.60
2019-02-05T03:26:03.022Z,96.60
2019-02-05T03:31:20.739Z,96.60
2019-02-05T03:36:38.442Z,96.60
2019-02-05T03:41:55.765Z,96.60
2019-02-05T03:47:13.212Z,96.60
2019-02-05T03:52:30.515Z,96.50
2019-02-05T03:57:47.909Z,96.60
2019-02-05T04:03:05.698Z,96.50
2019-02-05T04:08:23.426Z,96.50
2019-02-05T04:13:40.739Z,96.50
2019-02-05T04:18:58.017Z,96.60
2019-02-05T04:24:14.836Z,96.60
2019-02-05T04:29:31.941Z,96.60
2019-02-05T04:34:49.109Z,96.60
2019-02-05T04:40:06.081Z,96.60
2019-02-05T04:45:33.844Z,96.50
2019-02-05T04:50:42.747Z,96.50
2019-02-05T04:55:59.611Z,96.50
2019-02-05T05:01:17.057Z,96.70
2019-02-05T05:06:34.202Z,96.70
2019-02-05T05:11:50.958Z,96.70
2019-02-05T05:17:08.097Z,96.60
2019-02-05T05:22:25.080Z,96.70
2019-02-05T05:27:42.089Z,96.60
2019-02-05T05:32:59.634Z,96.60
2019-02-05T05:38:17.394Z,96.50
2019-02-05T05:43:34.725Z,96.50
2019-02-05T05:48:51.748Z,96.60
2019-02-05T05:54:09.122Z,96.50
2019-02-05T05:59:26.650Z,96.40
2019-02-05T06:04:43.526Z,96.40
2019-02-05T06:10:01.917Z,96.60
2019-02-05T06:15:19.252Z,96.60
2019-02-05T06:20:36.484Z,96.50
2019-02-05T06:25:54.088Z,97.10
2019-02-05T06:31:11.468Z,97.30
2019-02-05T06:36:28.417Z,97.10
2019-02-05T06:41:45.407Z,97.00
2019-02-05T06:47:02.334Z,96.90
2019-02-05T06:52:19.086Z,96.80
2019-02-05T06:57:37.348Z,96.70
2019-02-05T07:02:54.101Z,96.60
2019-02-05T07:08:11.251Z,96.60
2019-02-05T07:13:28.142Z,96.60
2019-02-05T07:18:45.645Z,97.00
2019-02-05T07:24:03.693Z,97.20
2019-02-05T07:29:20.779Z,97.40
2019-02-05T07:34:37.831Z,97.00
2019-02-05T07:39:55.588Z,97.00
2019-02-05T07:45:12.638Z,97.10
2019-02-05T07:50:29.951Z,96.90
2019-02-05T07:55:46.907Z,97.00
2019-02-05T08:01:04.472Z,97.00
2019-02-05T08:06:21.772Z,97.00
2019-02-05T08:11:41.269Z,96.80
2019-02-05T08:16:58.245Z,96.70
2019-02-05T08:22:15.042Z,96.80
2019-02-05T08:27:32.167Z,96.70
2019-02-05T08:32:49.294Z,96.60
2019-02-05T08:38:06.715Z,96.70
2019-02-05T08:43:23.587Z,96.60
2019-02-05T08:48:41.163Z,96.50
2019-02-05T08:53:58.632Z,96.40
2019-02-05T08:59:16.314Z,96.30
2019-02-05T09:04:33.601Z,96.40
2019-02-05T09:09:50.837Z,96.30
2019-02-05T09:15:08.582Z,96.40
2019-02-05T09:20:25.455Z,96.60
2019-02-05T09:25:42.491Z,96.60
2019-02-05T09:31:01.443Z,96.60
2019-02-05T09:36:18.902Z,96.50
2019-02-05T09:41:35.814Z,96.50
2019-02-05T09:46:52.872Z,96.50
2019-02-05T09:52:09.996Z,96.60
2019-02-05T09:57:26.905Z,96.60
2019-02-05T10:02:44.462Z,96.60
2019-02-05T10:08:02.260Z,96.40
2019-02-05T10:13:19.318Z,96.50
2019-02-05T10:18:36.230Z,96.60
2019-02-05T10:23:53.038Z,96.60
2019-02-05T10:29:10.118Z,96.70
2019-02-05T10:34:34.321Z,96.60
2019-02-05T10:39:46.548Z,96.80
2019-02-05T10:45:04.422Z,96.80
2019-02-05T10:50:21.441Z,96.80
2019-02-05T10:55:39.071Z,96.70
2019-02-05T11:00:56.169Z,96.60
2019-02-05T11:06:13.796Z,96.50
2019-02-05T11:11:31.231Z,96.60
2019-02-05T11:16:48.371Z,96.50
2019-02-05T11:22:05.941Z,96.70
2019-02-05T11:27:23.645Z,96.60
2019-02-05T11:32:40.584Z,96.60
2019-02-05T11:37:57.599Z,96.60
2019-02-05T11:43:14.395Z,96.60
2019-02-05T11:48:31.715Z,96.50
2019-02-05T11:53:49.221Z,96.50
2019-02-05T11:59:06.197Z,96.40
2019-02-05T12:04:23.314Z,96.40
2019-02-05T12:09:40.621Z,96.30
2019-02-05T12:14:57.760Z,96.20
2019-02-05T12:20:14.988Z,96.20
2019-02-05T12:25:32.171Z,96.20
2019-02-05T12:30:49.582Z,96.30
2019-02-05T12:36:06.623Z,96.30
2019-02-05T12:41:24.321Z,96.10
2019-02-05T12:46:42.079Z,96.20
2019-02-05T12:51:59.314Z,96.10
2019-02-05T12:57:16.614Z,96.30
2019-02-05T13:02:33.831Z,96.40
2019-02-05T13:07:50.713Z,96.60
2019-02-05T13:13:07.751Z,96.60
2019-02-05T13:18:24.653Z,96.20
2019-02-05T13:23:41.806Z,96.30
2019-02-05T13:28:59.229Z,96.30
2019-02-05T13:34:16.325Z,96.30
2019-02-05T13:39:33.753Z,96.50
2019-02-05T13:44:50.811Z,96.40
2019-02-05T13:50:08.312Z,96.10
2019-02-05T13:55:25.143Z,96.20
2019-02-05T14:00:42.283Z,96.20
2019-02-05T14:05:59.889Z,96.20
2019-02-05T14:11:16.883Z,96.20
2019-02-05T14:16:33.698Z,96.10
2019-02-05T14:21:50.796Z,96.10
2019-02-05T14:27:08.117Z,96.10
2019-02-05T14:32:25.815Z,96.30
2019-02-05T14:37:43.067Z,96.20
2019-02-05T14:43:00.348Z,96.30
2019-02-05T14:48:17.933Z,96.40
2019-02-05T14:53:35.542Z,96.50
2019-02-05T14:58:52.668Z,96.50
2019-02-05T15:04:09.432Z,96.50
2019-02-05T15:09:26.704Z,96.60
2019-02-05T15:14:43.830Z,96.60
2019-02-05T15:20:01.765Z,96.60
2019-02-05T15:25:18.764Z,96.70
2019-02-05T15:30:36.838Z,96.50
2019-02-05T15:35:57.281Z,96.40
2019-02-05T15:41:15.064Z,96.30
2019-02-05T15:46:32.806Z,96.40
2019-02-05T15:51:49.953Z,96.40
2019-02-05T15:57:07.239Z,96.40
2019-02-05T16:02:24.399Z,96.40
2019-02-05T16:07:42.089Z,96.40
2019-02-05T16:12:58.847Z,96.60
2019-02-05T16:18:15.727Z,96.60
2019-02-05T16:23:33.036Z,96.60
2019-02-05T16:28:50.362Z,96.60
2019-02-05T16:34:07.919Z,96.50
2019-02-05T16:39:24.912Z,96.80
2019-02-05T16:44:42.134Z,96.90
2019-02-05T16:49:59.497Z,96.80
2019-02-05T16:55:16.559Z,96.90
2019-02-05T17:00:34.355Z,96.90
2019-02-05T17:05:51.287Z,96.90
2019-02-05T17:11:08.055Z,96.90
2019-02-05T17:16:25.350Z,96.90
2019-02-05T17:21:42.613Z,97.00
2019-02-05T17:26:59.888Z,96.90
2019-02-05T17:32:16.925Z,97.00
2019-02-05T17:37:34.124Z,97.00
2019-02-05T17:42:52.013Z,97.20
2019-02-05T17:48:09.294Z,97.30
2019-02-05T17:53:26.615Z,97.50
2019-02-05T17:58:44.029Z,97.20
2019-02-05T18:04:01.143Z,97.20
2019-02-05T18:09:18.661Z,97.20
2019-02-05T18:14:36.166Z,97.30
2019-02-05T18:19:53.720Z,97.40
2019-02-05T18:25:11.122Z,97.50
2019-02-05T18:30:28.177Z,97.70
2019-02-05T18:35:45.481Z,97.90
2019-02-05T18:41:03.247Z,97.90
2019-02-05T18:46:21.175Z,97.90
2019-02-05T18:51:38.952Z,98.00
2019-02-05T18:56:56.293Z,97.90
2019-02-05T19:02:13.387Z,98.00
2019-02-05T19:07:30.562Z,97.90
2019-02-05T19:12:48.168Z,98.00
2019-02-05T19:18:05.552Z,98.00
2019-02-05T19:23:22.848Z,97.80
2019-02-05T19:28:41.537Z,97.60
2019-02-05T19:33:58.408Z,97.60
2019-02-05T19:39:16.407Z,97.50
2019-02-05T19:44:33.711Z,97.50
2019-02-05T19:49:54.104Z,97.30
2019-02-05T19:55:11.693Z,97.30
2019-02-05T20:00:29.575Z,97.20
2019-02-05T20:05:46.719Z,97.20
2019-02-05T20:11:04.001Z,97.20
2019-02-05T20:16:21.070Z,97.20
2019-02-05T20:21:37.974Z,97.20
2019-02-05T20:26:55.645Z,97.20
2019-02-05T20:32:13.045Z,97.30
2019-02-05T20:37:29.857Z,97.30
2019-02-05T20:42:47.056Z,97.40
2019-02-05T20:48:04.095Z,97.10
2019-02-05T20:53:21.376Z,97.50
2019-02-05T20:58:39.092Z,97.40
2019-02-05T21:04:01.170Z,97.40
2019-02-05T21:09:15.109Z,97.40
2019-02-05T21:14:32.408Z,97.60
2019-02-05T21:19:49.810Z,97.70
2019-02-05T21:25:06.657Z,97.60
2019-02-05T21:30:24.279Z,98.10
2019-02-05T21:35:41.490Z,98.40
2019-02-05T21:40:58.986Z,98.40
2019-02-05T21:46:16.094Z,98.30
2019-02-05T21:51:40.576Z,98.50
2019-02-05T21:56:51.783Z,98.30
2019-02-05T22:02:08.794Z,98.20
2019-02-05T22:07:26.743Z,98.20
2019-02-05T22:12:44.758Z,98.10
2019-02-05T22:18:01.461Z,98.30
2019-02-05T22:23:19.162Z,98.70
2019-02-05T22:28:35.995Z,98.30
2019-02-05T22:33:53.282Z,98.70
2019-02-05T22:39:10.870Z,98.70
2019-02-05T22:44:28.423Z,98.80
2019-02-05T22:49:46.757Z,98.50
2019-02-05T22:55:03.780Z,98.40
2019-02-05T23:00:20.725Z,98.50
2019-02-05T23:05:37.610Z,98.50
2019-02-05T23:11:03.182Z,99.00
2019-02-05T23:16:13.355Z,98.80
2019-02-05T23:21:30.746Z,98.80
2019-02-05T23:26:48.027Z,99.20
2019-02-05T23:32:04.989Z,99.40
2019-02-05T23:37:22.690Z,98.90
2019-02-05T23:42:40.213Z,99.00
2019-02-05T23:47:57.102Z,99.10
2019-02-05T23:53:14.840Z,99.10
2019-02-05T23:58:31.729Z,99.50
